createdAt,value
2022-12-29T00:09:47.306Z,26.70
2022-12-29T00:25:11.104Z,26.93
2022-12-29T00:40:35.543Z,27.10
2022-12-29T00:55:40.458Z,27.20
2022-12-29T01:10:44.493Z,39.47
2022-12-29T01:25:48.607Z,28.90
2022-12-29T01:40:52.918Z,25.53
2022-12-29T01:55:58.995Z,25.40
2022-12-29T02:11:04.487Z,24.30
2022-12-29T02:26:18.214Z,24.00
2022-12-29T02:41:33.366Z,22.73
2022-12-29T02:56:37.836Z,20.13
2022-12-29T03:12:11.848Z,22.03
2022-12-29T03:27:20.858Z,23.43
2022-12-29T03:42:28.663Z,25.23
2022-12-29T03:57:32.977Z,24.60
2022-12-29T04:12:43.454Z,25.87
2022-12-29T04:27:48.665Z,24.23
2022-12-29T04:43:09.955Z,21.23
2022-12-29T04:58:33.792Z,25.00
2022-12-29T05:13:38.561Z,22.60
2022-12-29T05:28:42.869Z,24.13
2022-12-29T05:43:50.985Z,25.20
2022-12-29T05:59:11.521Z,25.50
2022-12-29T06:14:15.763Z,24.00
2022-12-29T06:29:19.797Z,22.50
2022-12-29T06:44:24.743Z,25.73
2022-12-29T06:59:34.301Z,25.07
2022-12-29T07:14:42.937Z,24.60
2022-12-29T07:29:47.617Z,24.70
2022-12-29T07:44:51.895Z,25.10
2022-12-29T08:00:02.395Z,26.73
2022-12-29T08:15:15.832Z,25.80
2022-12-29T08:30:19.890Z,25.80
2022-12-29T08:45:24.998Z,26.60
2022-12-29T09:00:29.265Z,25.30
2022-12-29T09:15:34.827Z,22.43
2022-12-29T09:30:39.576Z,22.67
2022-12-29T09:46:01.794Z,23.60
2022-12-29T10:01:10.513Z,22.50
2022-12-29T10:16:20.257Z,25.73
2022-12-29T10:31:25.915Z,28.30
2022-12-29T10:46:36.537Z,29.00
2022-12-29T11:01:44.945Z,28.40
2022-12-29T11:17:00.601Z,27.93
2022-12-29T11:32:14.185Z,30.57
2022-12-29T11:47:44.104Z,27.20
2022-12-29T12:03:06.882Z,23.90
2022-12-29T12:18:18.989Z,21.60
2022-12-29T12:33:35.448Z,22.53
2022-12-29T12:48:39.912Z,20.90
2022-12-29T13:04:03.623Z,19.90
2022-12-29T13:19:13.718Z,17.87
2022-12-29T13:34:35.980Z,19.20
2022-12-29T13:49:40.617Z,21.03
2022-12-29T14:05:05.714Z,21.40
2022-12-29T14:20:30.712Z,22.20
2022-12-29T14:35:40.245Z,21.37
2022-12-29T14:50:45.407Z,20.53
2022-12-29T15:05:52.201Z,23.70
2022-12-29T15:21:00.562Z,38.90
2022-12-29T15:36:05.515Z,34.10
2022-12-29T15:51:27.899Z,29.43
2022-12-29T16:06:35.580Z,32.67
2022-12-29T16:21:39.934Z,29.50
2022-12-29T16:36:57.805Z,30.10
2022-12-29T16:52:02.491Z,31.43
2022-12-29T17:07:11.611Z,40.83
2022-12-29T17:22:18.639Z,43.93
2022-12-29T17:37:25.178Z,41.23
2022-12-29T17:52:29.949Z,32.73
2022-12-29T18:07:36.180Z,33.10
2022-12-29T18:22:40.769Z,37.57
2022-12-29T18:37:45.003Z,46.57
2022-12-29T18:52:49.141Z,47.30
2022-12-29T19:07:53.844Z,47.63
2022-12-29T19:22:58.728Z,51.50
2022-12-29T19:38:03.257Z,57.90
2022-12-29T19:53:07.941Z,56.00
2022-12-29T20:08:12.274Z,54.87
2022-12-29T20:23:16.534Z,56.97
2022-12-29T20:38:21.129Z,59.13
2022-12-29T20:53:25.381Z,56.63
2022-12-29T21:08:30.974Z,54.47
2022-12-29T21:23:35.406Z,50.57
2022-12-29T21:38:40.379Z,50.50
2022-12-29T21:53:45.872Z,44.17
2022-12-29T22:09:09.217Z,47.20
2022-12-29T22:24:13.297Z,45.60
2022-12-29T22:39:17.606Z,48.57
2022-12-29T22:54:21.820Z,46.37
2022-12-29T23:09:25.980Z,45.70
2022-12-29T23:24:30.751Z,47.90
2022-12-29T23:39:34.930Z,46.30
2022-12-29T23:54:39.200Z,46.30
